Time;durP1;ratioP1;P1;durP2;ratioP2;P2;SDS_P1;SDS_P2;PMS_P1;PMS_P2;Temp;Humidity;BMP_temperature;BMP_pressure;BME280_temperature;BME280_humidity;BME280_pressure;Samples;Min_cycle;Max_cycle;Signal;HPM_P1;HPM_P2
2021/06/30 00:01:48;;;;;;;3.47;1.85;;;15.80;89.50;;;;;;5030352;28;20140;-77
2021/06/30 00:04:14;;;;;;;3.00;1.70;;;15.90;89.40;;;;;;5031613;28;20547;-77
2021/06/30 00:06:39;;;;;;;1.90;1.60;;;15.80;90.10;;;;;;5039507;28;20465;-77
2021/06/30 00:09:06;;;;;;;1.92;1.80;;;15.80;89.80;;;;;;5027185;28;20030;-77
2021/06/30 00:11:31;;;;;;;3.28;1.77;;;15.80;89.60;;;;;;5029818;28;20021;-77
2021/06/30 00:13:57;;;;;;;2.38;1.83;;;15.80;90.20;;;;;;5019921;28;20028;-77
2021/06/30 00:16:23;;;;;;;2.25;2.05;;;15.90;90.00;;;;;;5030285;28;20025;-77
2021/06/30 00:18:49;;;;;;;4.15;2.13;;;15.80;90.20;;;;;;5029589;28;20498;-77
2021/06/30 00:21:14;;;;;;;2.83;2.35;;;15.80;90.20;;;;;;5026106;28;20033;-77
2021/06/30 00:23:40;;;;;;;2.63;1.83;;;15.70;90.30;;;;;;5035626;28;20024;-77
2021/06/30 00:26:06;;;;;;;2.22;1.90;;;15.70;90.20;;;;;;5035306;28;20033;-77
2021/06/30 00:28:31;;;;;;;3.47;2.05;;;15.80;90.10;;;;;;5033894;28;20025;-76
2021/06/30 00:30:58;;;;;;;3.35;2.00;;;15.80;90.10;;;;;;5034852;28;20087;-77
2021/06/30 00:33:24;;;;;;;2.40;1.85;;;15.80;90.20;;;;;;5027348;28;20108;-76
2021/06/30 00:35:49;;;;;;;3.83;1.95;;;15.70;90.30;;;;;;5031529;28;20081;-76
2021/06/30 00:38:16;;;;;;;2.03;1.83;;;15.70;90.20;;;;;;5034847;28;20047;-77
2021/06/30 00:40:45;;;;;;;3.78;2.50;;;15.70;90.30;;;;;;5026657;28;20449;-77
2021/06/30 00:43:11;;;;;;;3.35;2.30;;;15.80;90.30;;;;;;5027560;28;20042;-77
2021/06/30 00:45:36;;;;;;;3.28;2.15;;;15.70;90.20;;;;;;5028674;28;20037;-77
2021/06/30 00:48:02;;;;;;;2.88;2.25;;;15.80;90.20;;;;;;5025601;28;20697;-76
2021/06/30 00:50:28;;;;;;;2.63;2.20;;;15.80;90.20;;;;;;5030067;28;20596;-77
2021/06/30 00:52:54;;;;;;;2.72;2.13;;;15.80;90.20;;;;;;5031102;28;20496;-77
2021/06/30 00:55:22;;;;;;;2.40;2.20;;;15.80;90.20;;;;;;5024042;28;20099;-77
2021/06/30 00:57:48;;;;;;;2.97;2.42;;;15.80;90.20;;;;;;5026826;28;20466;-77
2021/06/30 01:00:14;;;;;;;2.55;2.15;;;15.80;90.20;;;;;;5028516;28;20125;-77
2021/06/30 01:02:40;;;;;;;2.70;2.50;;;15.70;90.30;;;;;;5021441;28;20512;-77
2021/06/30 01:05:06;;;;;;;4.00;2.33;;;15.70;90.40;;;;;;5030038;28;20036;-77
2021/06/30 01:07:32;;;;;;;2.50;2.30;;;15.70;90.60;;;;;;5027546;28;20025;-76
2021/06/30 01:09:57;;;;;;;3.13;2.17;;;15.70;90.60;;;;;;5028774;28;20026;-77
2021/06/30 01:12:23;;;;;;;5.13;2.47;;;15.60;90.50;;;;;;5028732;28;20395;-77
2021/06/30 01:14:49;;;;;;;5.03;2.40;;;15.70;90.60;;;;;;5024052;28;20120;-77
2021/06/30 01:17:14;;;;;;;3.70;2.50;;;15.70;91.00;;;;;;5028804;28;20114;-77
2021/06/30 01:19:40;;;;;;;3.28;2.72;;;15.70;90.60;;;;;;5028502;28;20021;-77
2021/06/30 01:22:06;;;;;;;3.33;2.75;;;15.70;90.80;;;;;;5032436;28;20033;-77
2021/06/30 01:24:33;;;;;;;3.20;2.67;;;15.60;90.80;;;;;;5029783;28;20032;-77
2021/06/30 01:26:59;;;;;;;3.75;2.58;;;15.60;90.90;;;;;;5037190;28;20017;-77
2021/06/30 01:29:25;;;;;;;3.25;2.50;;;15.60;90.90;;;;;;5026867;28;20848;-76
2021/06/30 01:31:51;;;;;;;2.67;2.42;;;15.60;90.90;;;;;;5026156;28;20144;-77
2021/06/30 01:34:17;;;;;;;2.95;2.70;;;15.60;91.10;;;;;;5033338;28;20501;-77
2021/06/30 01:36:47;;;;;;;7.28;2.58;;;15.60;91.10;;;;;;5016020;28;20048;-77
2021/06/30 01:39:14;;;;;;;3.30;2.50;;;15.60;91.00;;;;;;5020413;28;20080;-76
2021/06/30 01:41:40;;;;;;;4.47;2.25;;;15.60;90.90;;;;;;5025692;28;20021;-76
2021/06/30 01:44:06;;;;;;;2.25;2.05;;;15.60;91.20;;;;;;5024648;28;20465;-76
2021/06/30 01:46:33;;;;;;;2.28;2.08;;;15.60;91.00;;;;;;5020489;28;20028;-75
2021/06/30 01:48:58;;;;;;;3.05;2.22;;;15.50;91.10;;;;;;5030536;28;20100;-75
2021/06/30 01:51:24;;;;;;;3.67;2.50;;;15.50;91.00;;;;;;5024095;28;20147;-77
2021/06/30 01:53:57;;;;;;;2.67;2.47;;;15.50;91.20;;;;;;5030275;28;20384;-75
2021/06/30 01:56:27;;;;;;;2.50;2.30;;;15.50;91.10;;;;;;5018512;28;20026;-77
2021/06/30 01:59:07;;;;;;;4.25;2.78;;;15.40;91.20;;;;;;5031148;28;20641;-76
2021/06/30 02:01:32;;;;;;;3.33;2.28;;;15.40;91.30;;;;;;5026836;28;20508;-77
2021/06/30 02:03:59;;;;;;;2.30;2.10;;;15.40;91.50;;;;;;5030670;28;20080;-77
2021/06/30 02:06:27;;;;;;;2.40;2.03;;;15.30;91.20;;;;;;5027906;28;20078;-76
2021/06/30 02:08:56;;;;;;;2.13;1.93;;;15.30;91.40;;;;;;5025586;28;20428;-75
2021/06/30 02:11:22;;;;;;;2.22;1.75;;;15.30;91.20;;;;;;5016594;28;20400;-77
2021/06/30 02:13:48;;;;;;;5.65;1.70;;;15.30;91.30;;;;;;5024388;28;20055;-75
2021/06/30 02:16:14;;;;;;;2.17;1.70;;;15.20;91.00;;;;;;5024072;28;20489;-75
2021/06/30 02:18:40;;;;;;;1.63;1.52;;;15.10;91.20;;;;;;5024183;28;20033;-77
2021/06/30 02:21:06;;;;;;;3.15;1.40;;;15.10;91.20;;;;;;5023150;28;20025;-77
2021/06/30 02:23:32;;;;;;;1.52;1.42;;;15.10;91.10;;;;;;5026237;28;20024;-77
2021/06/30 02:25:58;;;;;;;1.63;1.40;;;15.10;91.20;;;;;;5031840;28;20079;-76
2021/06/30 02:28:23;;;;;;;2.47;1.73;;;15.10;91.30;;;;;;5018637;28;20021;-77
2021/06/30 02:30:50;;;;;;;1.27;1.20;;;15.00;91.30;;;;;;5027857;28;20044;-77
2021/06/30 02:33:16;;;;;;;1.33;1.30;;;15.00;91.20;;;;;;5024122;28;20052;-77
2021/06/30 02:35:41;;;;;;;1.30;1.30;;;15.00;91.40;;;;;;5026641;28;20087;-77
2021/06/30 02:38:08;;;;;;;0.90;0.90;;;15.00;91.20;;;;;;5026972;28;20037;-77
2021/06/30 02:40:34;;;;;;;0.90;0.90;;;15.00;91.10;;;;;;5014579;28;20529;-75
2021/06/30 02:43:00;;;;;;;1.00;0.98;;;15.00;91.10;;;;;;5025522;28;20040;-78
2021/06/30 02:45:27;;;;;;;3.53;1.10;;;14.90;90.90;;;;;;5027505;28;20040;-77
2021/06/30 02:47:52;;;;;;;0.80;0.80;;;15.00;91.00;;;;;;5029782;28;20030;-77
2021/06/30 02:50:19;;;;;;;0.90;0.90;;;14.90;91.00;;;;;;5029069;28;20026;-77
2021/06/30 02:52:47;;;;;;;1.00;1.00;;;14.90;90.90;;;;;;5028290;28;20021;-77
2021/06/30 02:55:13;;;;;;;0.70;0.70;;;14.80;90.90;;;;;;5020573;28;20555;-77
2021/06/30 02:57:39;;;;;;;0.63;0.63;;;14.80;90.90;;;;;;5021267;28;20029;-76
2021/06/30 03:00:15;;;;;;;0.50;0.50;;;14.70;90.70;;;;;;5032871;28;20048;-77
2021/06/30 03:02:41;;;;;;;0.60;0.60;;;14.80;91.00;;;;;;5027434;28;20144;-76
2021/06/30 03:05:08;;;;;;;0.60;0.60;;;14.70;90.70;;;;;;5025367;28;20041;-76
2021/06/30 03:07:34;;;;;;;0.73;0.73;;;14.70;90.90;;;;;;5023403;28;20032;-77
2021/06/30 03:10:00;;;;;;;0.52;0.50;;;14.70;91.00;;;;;;5033558;28;20109;-77
2021/06/30 03:12:26;;;;;;;0.85;0.70;;;14.50;90.80;;;;;;5018786;28;20599;-76
2021/06/30 03:14:51;;;;;;;0.52;0.52;;;14.60;90.60;;;;;;5033265;28;20090;-75
2021/06/30 03:17:17;;;;;;;0.30;0.30;;;14.50;90.50;;;;;;5035417;28;20043;-77
2021/06/30 03:19:43;;;;;;;0.50;0.50;;;14.50;90.10;;;;;;5024708;28;20070;-77
2021/06/30 03:22:08;;;;;;;0.90;0.80;;;14.40;90.20;;;;;;5032470;28;20040;-75
2021/06/30 03:24:34;;;;;;;0.50;0.50;;;14.50;90.30;;;;;;5029244;28;20041;-77
2021/06/30 03:27:00;;;;;;;0.60;0.60;;;14.40;90.10;;;;;;5027017;28;20033;-76
2021/06/30 03:29:25;;;;;;;0.93;0.40;;;14.50;90.10;;;;;;5027171;28;20029;-77
2021/06/30 03:31:51;;;;;;;1.65;0.50;;;14.40;89.80;;;;;;5021897;28;20076;-76
2021/06/30 03:34:17;;;;;;;0.32;0.32;;;14.30;89.80;;;;;;5027751;28;20025;-77
2021/06/30 03:36:42;;;;;;;0.40;0.40;;;14.40;90.20;;;;;;5024116;28;20532;-76
2021/06/30 03:39:08;;;;;;;0.40;0.40;;;14.30;90.30;;;;;;5021838;28;20112;-77
2021/06/30 03:41:34;;;;;;;0.40;0.40;;;14.30;90.10;;;;;;5022826;28;20117;-77
2021/06/30 03:43:59;;;;;;;1.85;0.40;;;14.30;89.80;;;;;;5029909;28;20167;-77
2021/06/30 03:46:25;;;;;;;0.40;0.40;;;14.30;89.60;;;;;;5027407;28;20025;-77
2021/06/30 03:48:51;;;;;;;0.40;0.40;;;14.30;89.80;;;;;;5023112;28;20037;-76
2021/06/30 03:51:16;;;;;;;3.38;0.60;;;14.30;90.10;;;;;;5030056;28;20024;-77
2021/06/30 03:53:42;;;;;;;0.28;0.28;;;14.30;90.10;;;;;;5037463;28;20606;-76
2021/06/30 03:56:08;;;;;;;0.65;0.28;;;14.30;90.00;;;;;;5025516;28;20022;-77
2021/06/30 03:58:33;;;;;;;2.80;0.55;;;14.20;90.00;;;;;;5030433;28;20485;-77
2021/06/30 04:00:59;;;;;;;0.25;0.25;;;14.20;89.90;;;;;;5033737;28;21114;-76
2021/06/30 04:03:25;;;;;;;0.35;0.35;;;14.20;89.50;;;;;;5034158;28;20025;-77
2021/06/30 04:05:51;;;;;;;0.20;0.20;;;14.10;89.90;;;;;;5028384;28;20044;-77
2021/06/30 04:08:17;;;;;;;2.20;0.40;;;14.10;90.10;;;;;;5028307;28;20037;-77
2021/06/30 04:10:43;;;;;;;0.52;0.52;;;14.10;89.70;;;;;;5035276;28;20538;-77
2021/06/30 04:13:09;;;;;;;0.30;0.30;;;14.10;89.90;;;;;;5027922;28;20775;-77
2021/06/30 04:15:36;;;;;;;0.63;0.30;;;14.10;90.10;;;;;;5035756;28;20052;-77
2021/06/30 04:18:05;;;;;;;0.40;0.40;;;14.10;89.50;;;;;;5031172;28;20474;-77
2021/06/30 04:20:31;;;;;;;1.25;0.30;;;14.10;89.40;;;;;;5033591;28;20056;-77
2021/06/30 04:22:57;;;;;;;0.45;0.40;;;14.10;89.40;;;;;;5030804;28;20033;-77
2021/06/30 04:25:22;;;;;;;1.10;0.30;;;14.00;89.80;;;;;;5027553;28;20198;-77
2021/06/30 04:27:48;;;;;;;0.70;0.35;;;14.00;90.30;;;;;;5028878;28;20050;-77
2021/06/30 04:30:14;;;;;;;0.73;0.22;;;14.00;90.00;;;;;;5027413;28;20486;-77
2021/06/30 04:32:40;;;;;;;0.20;0.20;;;14.00;89.90;;;;;;5028354;28;20034;-76
2021/06/30 04:35:07;;;;;;;0.20;0.20;;;14.00;89.20;;;;;;5025050;28;20056;-77
2021/06/30 04:37:33;;;;;;;0.10;0.10;;;13.90;89.10;;;;;;5032947;28;20887;-77
2021/06/30 04:40:00;;;;;;;0.30;0.30;;;13.90;89.00;;;;;;5032998;28;20037;-77
2021/06/30 04:42:26;;;;;;;0.30;0.25;;;13.90;88.90;;;;;;5032702;28;20037;-77
2021/06/30 04:44:51;;;;;;;0.20;0.20;;;13.90;88.90;;;;;;5034502;28;20036;-77
2021/06/30 04:47:17;;;;;;;0.30;0.30;;;13.90;88.50;;;;;;5028285;28;20493;-78
2021/06/30 04:49:43;;;;;;;0.52;0.20;;;13.80;89.30;;;;;;5039644;28;20028;-77
2021/06/30 04:52:08;;;;;;;0.10;0.10;;;13.90;89.40;;;;;;5028847;28;20108;-76
2021/06/30 04:54:34;;;;;;;0.28;0.28;;;13.90;90.00;;;;;;5031867;28;20040;-77
2021/06/30 04:57:00;;;;;;;0.30;0.20;;;13.80;89.30;;;;;;5023362;28;20028;-76
2021/06/30 04:59:25;;;;;;;0.35;0.35;;;13.90;87.80;;;;;;5030472;28;20029;-77
2021/06/30 05:01:52;;;;;;;0.73;0.28;;;13.90;88.60;;;;;;5031463;28;20040;-76
2021/06/30 05:04:18;;;;;;;0.25;0.25;;;13.90;88.10;;;;;;5034043;28;20028;-77
2021/06/30 05:06:45;;;;;;;0.20;0.20;;;13.90;88.00;;;;;;5030782;28;20025;-77
2021/06/30 05:09:11;;;;;;;0.20;0.20;;;13.90;87.70;;;;;;5024459;28;20029;-77
2021/06/30 05:11:37;;;;;;;0.30;0.30;;;13.90;89.10;;;;;;5029928;28;20044;-77
2021/06/30 05:14:03;;;;;;;1.05;0.40;;;13.90;88.50;;;;;;5028166;28;20032;-77
2021/06/30 05:16:28;;;;;;;0.10;0.10;;;13.90;88.00;;;;;;5029773;28;20037;-77
2021/06/30 05:18:54;;;;;;;0.30;0.30;;;13.90;87.50;;;;;;5033092;28;20030;-77
2021/06/30 05:21:21;;;;;;;0.28;0.28;;;14.00;88.20;;;;;;5033807;28;20029;-76
2021/06/30 05:23:47;;;;;;;0.30;0.20;;;14.00;88.90;;;;;;5029488;28;20037;-78
2021/06/30 05:26:13;;;;;;;0.35;0.20;;;14.10;89.10;;;;;;5025588;28;20014;-77
2021/06/30 05:28:39;;;;;;;0.15;0.15;;;14.10;88.10;;;;;;5027281;28;20107;-77
2021/06/30 05:31:05;;;;;;;0.17;0.17;;;14.10;88.10;;;;;;5023374;28;20037;-77
2021/06/30 05:33:30;;;;;;;0.20;0.20;;;14.10;86.60;;;;;;5031375;28;20029;-77
2021/06/30 05:35:56;;;;;;;0.63;0.30;;;14.10;87.60;;;;;;5023932;28;20037;-77
2021/06/30 05:38:22;;;;;;;0.40;0.30;;;14.20;88.00;;;;;;5028184;28;20044;-77
2021/06/30 05:40:48;;;;;;;3.17;0.50;;;14.20;88.80;;;;;;5024781;28;20037;-77
2021/06/30 05:43:14;;;;;;;0.20;0.20;;;14.20;88.20;;;;;;5021245;28;20099;-77
2021/06/30 05:45:40;;;;;;;0.13;0.10;;;14.30;87.80;;;;;;5020340;28;20063;-77
2021/06/30 05:48:06;;;;;;;1.55;0.38;;;14.40;87.90;;;;;;5032320;28;20496;-76
2021/06/30 05:50:33;;;;;;;0.85;0.35;;;14.40;86.70;;;;;;5028663;28;20033;-75
2021/06/30 05:52:58;;;;;;;0.50;0.50;;;14.40;86.60;;;;;;5027105;28;20030;-76
2021/06/30 05:55:24;;;;;;;0.25;0.25;;;14.50;86.50;;;;;;5020964;28;20033;-77
2021/06/30 05:57:50;;;;;;;0.47;0.45;;;14.60;86.80;;;;;;5023144;28;20033;-76
2021/06/30 06:00:19;;;;;;;2.35;0.40;;;14.70;85.60;;;;;;5031573;28;20127;-75
2021/06/30 06:02:45;;;;;;;0.40;0.40;;;14.70;85.80;;;;;;5024689;28;20559;-76
2021/06/30 06:05:11;;;;;;;1.58;0.50;;;14.70;82.40;;;;;;5029926;28;20468;-75
2021/06/30 06:07:37;;;;;;;0.82;0.82;;;14.80;84.20;;;;;;5021322;28;20025;-75
2021/06/30 06:10:08;;;;;;;0.47;0.47;;;14.80;84.60;;;;;;5017821;28;20112;-75
2021/06/30 06:12:33;;;;;;;0.30;0.30;;;14.80;84.00;;;;;;5018744;28;20036;-76
2021/06/30 06:14:59;;;;;;;1.35;0.32;;;14.90;83.10;;;;;;5028972;28;20104;-73
2021/06/30 06:17:25;;;;;;;0.25;0.25;;;14.90;82.20;;;;;;5026503;28;20101;-75
2021/06/30 06:19:51;;;;;;;0.35;0.35;;;14.90;81.10;;;;;;5032024;28;20040;-75
2021/06/30 06:22:16;;;;;;;0.32;0.32;;;15.00;81.80;;;;;;5028514;28;20676;-75
2021/06/30 06:24:42;;;;;;;0.52;0.50;;;15.00;82.60;;;;;;5026005;28;20124;-76
2021/06/30 06:27:08;;;;;;;0.40;0.40;;;15.10;82.50;;;;;;5015566;28;20021;-76
2021/06/30 06:29:38;;;;;;;0.28;0.28;;;15.10;80.90;;;;;;5023085;28;20380;-75
2021/06/30 06:32:04;;;;;;;0.50;0.50;;;15.20;81.40;;;;;;5031023;28;20432;-74
2021/06/30 06:34:30;;;;;;;0.63;0.50;;;15.20;81.20;;;;;;5031999;28;20017;-76
2021/06/30 06:36:59;;;;;;;0.50;0.50;;;15.30;82.20;;;;;;5029498;28;20041;-75
2021/06/30 06:39:27;;;;;;;0.22;0.22;;;15.40;80.70;;;;;;5022536;28;20029;-77
2021/06/30 06:41:52;;;;;;;0.37;0.37;;;15.40;79.90;;;;;;5026527;28;20094;-76
2021/06/30 06:44:18;;;;;;;0.25;0.25;;;15.30;80.20;;;;;;5033668;28;20693;-75
2021/06/30 06:46:44;;;;;;;0.30;0.30;;;15.40;81.30;;;;;;5023760;28;20022;-76
2021/06/30 06:49:10;;;;;;;0.10;0.10;;;15.40;81.10;;;;;;5021134;28;20071;-75
2021/06/30 06:51:37;;;;;;;0.40;0.40;;;15.60;80.30;;;;;;5023983;28;20064;-76
2021/06/30 06:54:04;;;;;;;0.38;0.30;;;15.70;82.00;;;;;;5023582;28;20258;-76
2021/06/30 06:56:29;;;;;;;0.20;0.20;;;15.70;78.20;;;;;;5023795;28;20086;-74
2021/06/30 06:58:55;;;;;;;0.13;0.13;;;15.70;79.50;;;;;;5027983;28;20037;-75
2021/06/30 07:01:22;;;;;;;0.20;0.20;;;15.70;79.30;;;;;;5028115;28;20594;-75
2021/06/30 07:03:48;;;;;;;0.20;0.20;;;15.60;79.10;;;;;;5027894;28;20021;-75
2021/06/30 07:06:14;;;;;;;0.30;0.30;;;15.50;77.80;;;;;;5028237;28;20048;-75
2021/06/30 07:08:40;;;;;;;0.82;0.45;;;15.40;79.30;;;;;;5025739;28;20032;-75
2021/06/30 07:11:08;;;;;;;0.80;0.45;;;15.40;79.10;;;;;;5028995;28;20013;-76
2021/06/30 07:13:34;;;;;;;;;;;15.40;79.30;;;;;;5020019;28;20519;-77
2021/06/30 07:15:59;;;;;;;0.30;0.30;;;15.30;79.70;;;;;;5016958;28;19917;-76
2021/06/30 07:18:25;;;;;;;1.25;0.22;;;15.30;78.40;;;;;;5023468;28;20370;-76
2021/06/30 07:20:52;;;;;;;0.20;0.20;;;15.30;79.20;;;;;;5025922;28;20037;-74
2021/06/30 07:23:17;;;;;;;0.20;0.20;;;15.40;79.20;;;;;;5028964;28;20087;-77
2021/06/30 07:25:43;;;;;;;0.40;0.40;;;15.50;80.80;;;;;;5027772;28;20029;-75
2021/06/30 07:28:09;;;;;;;0.30;0.30;;;15.60;79.80;;;;;;5025745;28;20111;-77
2021/06/30 07:30:35;;;;;;;0.40;0.40;;;15.80;81.10;;;;;;5031413;28;20090;-76
2021/06/30 07:33:01;;;;;;;1.33;0.40;;;15.90;79.40;;;;;;5027274;28;20024;-76
2021/06/30 07:35:27;;;;;;;0.30;0.30;;;16.00;76.80;;;;;;5028131;28;20029;-76
2021/06/30 07:37:53;;;;;;;0.30;0.30;;;16.10;77.90;;;;;;5024151;28;20105;-76
2021/06/30 07:40:19;;;;;;;0.98;0.60;;;16.20;77.40;;;;;;5027869;28;20037;-77
2021/06/30 07:42:44;;;;;;;0.10;0.10;;;16.20;76.30;;;;;;5030407;28;20060;-76
2021/06/30 07:45:10;;;;;;;1.55;0.43;;;16.20;75.90;;;;;;5026336;28;20080;-75
2021/06/30 07:47:36;;;;;;;0.20;0.20;;;16.20;76.40;;;;;;5027344;28;20071;-76
2021/06/30 07:50:07;;;;;;;0.50;0.40;;;16.20;75.60;;;;;;5024894;28;20018;-75
2021/06/30 07:52:33;;;;;;;0.50;0.50;;;16.30;77.20;;;;;;5029294;28;20869;-77
2021/06/30 07:54:59;;;;;;;0.52;0.30;;;16.40;76.90;;;;;;5028886;28;20051;-76
2021/06/30 07:57:25;;;;;;;0.25;0.25;;;16.40;76.40;;;;;;5035424;28;20049;-76
2021/06/30 07:59:51;;;;;;;0.28;0.28;;;16.40;77.40;;;;;;5031862;28;20068;-77
2021/06/30 08:02:17;;;;;;;0.25;0.25;;;16.30;73.80;;;;;;5030448;28;20030;-77
2021/06/30 08:04:43;;;;;;;0.45;0.20;;;16.20;74.10;;;;;;5029266;28;20022;-76
2021/06/30 08:07:09;;;;;;;0.57;0.40;;;16.00;74.10;;;;;;5031352;28;20829;-75
2021/06/30 08:09:35;;;;;;;0.40;0.40;;;16.00;75.50;;;;;;5033974;28;20021;-76
2021/06/30 08:12:05;;;;;;;0.38;0.38;;;16.20;77.50;;;;;;5032087;28;20091;-76
2021/06/30 08:14:33;;;;;;;0.55;0.30;;;16.20;76.00;;;;;;5029384;28;20466;-75
2021/06/30 08:16:59;;;;;;;1.00;0.40;;;16.20;75.40;;;;;;5040074;28;20030;-78
2021/06/30 08:19:24;;;;;;;0.30;0.30;;;16.30;76.70;;;;;;5030391;28;20053;-76
2021/06/30 08:21:50;;;;;;;0.30;0.30;;;16.40;74.60;;;;;;5034909;28;20163;-77
2021/06/30 08:24:16;;;;;;;0.30;0.30;;;16.60;76.10;;;;;;5032117;28;20089;-76
2021/06/30 08:26:42;;;;;;;0.60;0.30;;;16.70;76.00;;;;;;5039210;28;20079;-76
2021/06/30 08:29:08;;;;;;;0.75;0.38;;;16.80;73.50;;;;;;5031192;28;20033;-76
2021/06/30 08:31:33;;;;;;;0.40;0.40;;;16.80;74.90;;;;;;5032067;28;20029;-77
2021/06/30 08:33:59;;;;;;;1.85;0.35;;;16.70;72.70;;;;;;5027310;28;20026;-77
2021/06/30 08:36:25;;;;;;;0.30;0.30;;;16.80;76.40;;;;;;5037291;28;20032;-77
2021/06/30 08:38:51;;;;;;;0.75;0.75;;;16.90;76.50;;;;;;5033112;28;20033;-76
2021/06/30 08:41:18;;;;;;;0.55;0.30;;;16.90;75.10;;;;;;5028104;28;20018;-75
2021/06/30 08:43:44;;;;;;;0.22;0.22;;;16.90;73.60;;;;;;5035705;28;20027;-76
2021/06/30 08:46:10;;;;;;;0.30;0.30;;;16.80;74.00;;;;;;5025886;28;20419;-77
2021/06/30 08:48:40;;;;;;;0.20;0.20;;;16.70;72.60;;;;;;5023709;28;20029;-75
2021/06/30 08:51:08;;;;;;;0.45;0.30;;;16.60;73.20;;;;;;5033805;28;20030;-75
2021/06/30 08:53:35;;;;;;;0.65;0.30;;;16.60;72.90;;;;;;5023713;28;20083;-75
2021/06/30 08:56:02;;;;;;;0.85;0.52;;;16.70;73.30;;;;;;5022295;28;20037;-74
2021/06/30 08:58:28;;;;;;;0.20;0.20;;;16.80;71.90;;;;;;5025095;28;20021;-75
2021/06/30 09:00:55;;;;;;;0.22;0.22;;;17.00;74.70;;;;;;5030735;28;20523;-75
2021/06/30 09:03:20;;;;;;;0.85;0.35;;;17.20;72.00;;;;;;5026032;28;20443;-76
2021/06/30 09:08:19;;;;;;;0.40;0.40;;;17.20;70.10;;;;;;5027086;28;20018;-76
2021/06/30 09:10:45;;;;;;;0.40;0.40;;;17.10;69.10;;;;;;5020886;28;20041;-77
2021/06/30 09:13:25;;;;;;;0.40;0.40;;;17.00;68.90;;;;;;5026484;28;20075;-76
2021/06/30 09:15:58;;;;;;;0.40;0.40;;;16.90;70.10;;;;;;5016284;28;20033;-76
2021/06/30 09:18:31;;;;;;;1.15;0.40;;;16.90;71.10;;;;;;5022930;28;20026;-76
2021/06/30 09:21:20;;;;;;;0.40;0.40;;;16.90;71.40;;;;;;5030624;28;20056;-77
2021/06/30 09:24:04;;;;;;;0.35;0.35;;;16.90;70.10;;;;;;5029352;28;20060;-76
2021/06/30 09:26:32;;;;;;;0.40;0.40;;;16.90;70.60;;;;;;5022563;28;20025;-75
2021/06/30 09:29:05;;;;;;;0.30;0.30;;;16.90;69.50;;;;;;5035669;28;20135;-75
2021/06/30 09:31:31;;;;;;;0.40;0.40;;;16.90;69.40;;;;;;5027900;28;20515;-76
2021/06/30 09:33:57;;;;;;;0.40;0.40;;;17.00;70.40;;;;;;5029197;28;20033;-77
2021/06/30 09:36:26;;;;;;;0.40;0.40;;;17.00;68.80;;;;;;5020589;28;20024;-76
2021/06/30 09:38:52;;;;;;;0.30;0.30;;;17.10;73.00;;;;;;5029939;28;20674;-75
2021/06/30 09:41:30;;;;;;;0.45;0.45;;;17.20;72.80;;;;;;5023482;28;20049;-76
2021/06/30 09:44:11;;;;;;;0.20;0.20;;;17.50;68.90;;;;;;5017948;28;20053;-76
2021/06/30 09:46:38;;;;;;;0.60;0.60;;;17.50;68.80;;;;;;5031492;28;20025;-76
2021/06/30 09:49:06;;;;;;;0.40;0.40;;;17.40;68.40;;;;;;5028345;28;20065;-76
2021/06/30 09:51:32;;;;;;;;;;;17.40;67.90;;;;;;5030135;28;20101;-76
2021/06/30 09:54:18;;;;;;;0.30;0.30;;;17.30;68.50;;;;;;5024200;28;20046;-75
2021/06/30 09:57:00;;;;;;;0.32;0.32;;;17.30;69.50;;;;;;5021337;28;20087;-75
2021/06/30 09:59:35;;;;;;;0.32;0.32;;;17.40;71.00;;;;;;5025048;28;20044;-75
2021/06/30 10:02:08;;;;;;;0.35;0.35;;;17.30;70.40;;;;;;5031165;28;20546;-74
2021/06/30 10:04:40;;;;;;;0.40;0.40;;;17.30;70.00;;;;;;5027420;28;20029;-76
2021/06/30 10:07:13;;;;;;;0.40;0.40;;;17.20;69.10;;;;;;5028961;28;20025;-76
2021/06/30 10:09:59;;;;;;;0.75;0.52;;;17.10;70.10;;;;;;5032095;28;20100;-75
2021/06/30 10:12:30;;;;;;;0.30;0.30;;;17.00;69.50;;;;;;5024445;28;20024;-76
2021/06/30 10:14:57;;;;;;;0.50;0.50;;;17.00;70.50;;;;;;5032909;28;20025;-76
2021/06/30 10:17:24;;;;;;;0.30;0.30;;;16.90;70.40;;;;;;5026360;28;20083;-75
2021/06/30 10:19:52;;;;;;;0.35;0.35;;;16.90;69.90;;;;;;5032689;28;20593;-76
2021/06/30 10:22:18;;;;;;;0.30;0.30;;;17.00;70.30;;;;;;5028876;28;20128;-77
2021/06/30 10:24:44;;;;;;;0.85;0.50;;;17.00;71.30;;;;;;5017879;28;20120;-75
2021/06/30 10:27:12;;;;;;;0.40;0.40;;;17.00;70.20;;;;;;5029791;28;20648;-74
2021/06/30 10:29:41;;;;;;;0.35;0.35;;;17.00;70.70;;;;;;5027346;28;20427;-76
2021/06/30 10:32:09;;;;;;;0.95;0.50;;;17.20;72.30;;;;;;5022451;28;20496;-75
2021/06/30 10:35:14;;;;;;;0.60;0.43;;;17.50;70.90;;;;;;5027399;28;20085;-77
2021/06/30 10:37:53;;;;;;;0.40;0.40;;;17.80;69.60;;;;;;5031929;28;20102;-76
2021/06/30 10:40:19;;;;;;;0.40;0.40;;;17.70;66.60;;;;;;5031519;28;20025;-75
2021/06/30 10:42:47;;;;;;;0.55;0.32;;;17.50;66.00;;;;;;5025577;28;20488;-76
2021/06/30 10:45:13;;;;;;;0.32;0.32;;;17.50;66.50;;;;;;5028433;28;20702;-75
2021/06/30 10:47:54;;;;;;;0.22;0.22;;;17.50;69.20;;;;;;5037834;28;20124;-76
2021/06/30 10:50:22;;;;;;;0.30;0.30;;;17.60;67.60;;;;;;5020993;28;20029;-77
2021/06/30 10:52:49;;;;;;;0.93;0.47;;;17.60;69.20;;;;;;5026267;28;20022;-76
2021/06/30 10:55:37;;;;;;;0.30;0.30;;;17.70;69.90;;;;;;5030845;28;20034;-76
2021/06/30 10:58:24;;;;;;;0.28;0.28;;;17.60;66.10;;;;;;5028340;28;20117;-77
2021/06/30 11:01:04;;;;;;;0.25;0.25;;;17.60;67.40;;;;;;5024584;28;20079;-76
2021/06/30 11:03:34;;;;;;;0.50;0.50;;;17.50;67.30;;;;;;5026609;28;20033;-76
2021/06/30 11:06:10;;;;;;;0.40;0.40;;;17.50;67.90;;;;;;5024476;28;20076;-75
2021/06/30 11:08:48;;;;;;;0.95;0.40;;;17.50;66.80;;;;;;5031990;28;20103;-76
2021/06/30 11:11:17;;;;;;;0.30;0.30;;;17.50;68.20;;;;;;5032928;28;20013;-76
2021/06/30 11:14:02;;;;;;;0.40;0.40;;;17.50;67.80;;;;;;5031085;28;20017;-76
2021/06/30 11:16:41;;;;;;;0.40;0.40;;;17.40;67.00;;;;;;5037966;28;20025;-76
2021/06/30 11:19:07;;;;;;;0.40;0.40;;;17.40;68.20;;;;;;5029276;28;20021;-73
2021/06/30 11:21:57;;;;;;;0.30;0.30;;;17.40;68.10;;;;;;5037332;28;20079;-75
2021/06/30 11:27:15;;;;;;;1.27;0.30;;;17.50;67.40;;;;;;5028918;28;20091;-75
2021/06/30 11:29:48;;;;;;;0.90;0.40;;;17.60;68.70;;;;;;5031347;28;20105;-76
2021/06/30 11:32:35;;;;;;;0.30;0.30;;;17.60;67.50;;;;;;5031306;28;20030;-75
2021/06/30 11:35:04;;;;;;;0.37;0.37;;;17.70;66.90;;;;;;5029806;28;20115;-75
2021/06/30 11:37:31;;;;;;;0.30;0.30;;;17.70;67.10;;;;;;5028345;28;20279;-75
2021/06/30 11:40:06;;;;;;;0.40;0.40;;;17.80;68.20;;;;;;5024841;28;20089;-76
2021/06/30 11:42:34;;;;;;;1.58;0.30;;;17.90;67.50;;;;;;5025839;28;20021;-74
2021/06/30 11:45:00;;;;;;;0.30;0.30;;;17.90;68.40;;;;;;5023783;28;20025;-76
2021/06/30 11:47:26;;;;;;;1.00;0.40;;;17.90;68.30;;;;;;5027823;28;20796;-77
2021/06/30 11:50:03;;;;;;;0.47;0.47;;;17.90;67.90;;;;;;5024025;28;20071;-76
2021/06/30 11:52:29;;;;;;;0.50;0.50;;;18.00;69.30;;;;;;5026959;28;20067;-75
2021/06/30 11:54:56;;;;;;;0.50;0.50;;;18.00;67.80;;;;;;5027262;28;20037;-75
2021/06/30 11:57:22;;;;;;;0.32;0.32;;;18.10;68.80;;;;;;5029486;28;20024;-77
2021/06/30 11:59:47;;;;;;;0.50;0.50;;;18.20;66.00;;;;;;5032614;28;20025;-75
2021/06/30 12:02:13;;;;;;;0.38;0.38;;;18.30;69.20;;;;;;5023052;28;20582;-74
2021/06/30 12:04:40;;;;;;;0.43;0.43;;;18.40;66.90;;;;;;5034662;28;20583;-76
2021/06/30 12:07:05;;;;;;;0.50;0.50;;;18.30;67.10;;;;;;5031666;28;20045;-74
2021/06/30 12:09:33;;;;;;;0.57;0.57;;;18.30;65.70;;;;;;5028689;28;20095;-76
2021/06/30 12:12:06;;;;;;;1.50;0.43;;;18.30;66.80;;;;;;5027926;28;20124;-76
2021/06/30 12:14:43;;;;;;;0.40;0.40;;;18.30;66.20;;;;;;5034071;28;20040;-75
2021/06/30 12:17:11;;;;;;;1.13;0.70;;;18.20;68.00;;;;;;5023640;28;20034;-75
2021/06/30 12:19:48;;;;;;;0.50;0.50;;;18.20;67.50;;;;;;5021537;28;21097;-76
2021/06/30 12:22:18;;;;;;;0.20;0.20;;;18.30;68.20;;;;;;5023744;28;20041;-76
2021/06/30 12:24:44;;;;;;;0.30;0.30;;;18.20;68.30;;;;;;5026420;28;20021;-76
2021/06/30 12:27:11;;;;;;;0.20;0.20;;;18.20;66.50;;;;;;5021132;28;20030;-76
2021/06/30 12:29:39;;;;;;;0.30;0.30;;;18.30;66.70;;;;;;5022409;28;20025;-76
2021/06/30 12:32:06;;;;;;;;;;;18.40;66.00;;;;;;5025220;28;20044;-76
2021/06/30 12:34:32;;;;;;;0.77;0.30;;;18.40;67.10;;;;;;5027441;28;19991;-75
2021/06/30 12:36:59;;;;;;;0.32;0.32;;;18.50;66.40;;;;;;5024898;28;20128;-74
2021/06/30 12:39:28;;;;;;;0.25;0.25;;;18.50;65.60;;;;;;5029676;28;20475;-76
2021/06/30 12:42:00;;;;;;;0.57;0.57;;;18.50;65.20;;;;;;5029682;28;20036;-76
2021/06/30 12:44:27;;;;;;;0.57;0.57;;;18.50;65.80;;;;;;5024770;28;20032;-74
2021/06/30 12:47:26;;;;;;;0.50;0.50;;;18.40;64.90;;;;;;5024363;28;20030;-76
2021/06/30 12:50:02;;;;;;;0.45;0.40;;;18.40;64.80;;;;;;5018340;28;20187;-75
2021/06/30 12:52:30;;;;;;;0.35;0.35;;;18.50;63.90;;;;;;5017349;28;20127;-76
2021/06/30 12:55:06;;;;;;;0.40;0.35;;;18.50;65.60;;;;;;5027912;28;20059;-76
2021/06/30 12:57:33;;;;;;;0.40;0.40;;;18.60;64.10;;;;;;5028884;28;20028;-76